Time;durP1;ratioP1;P1;durP2;ratioP2;P2;SDS_P1;SDS_P2;PMS_P1;PMS_P2;Temp;Humidity;BMP_temperature;BMP_pressure;BME280_temperature;BME280_humidity;BME280_pressure;Samples;Min_cycle;Max_cycle;Signal;HPM_P1;HPM_P2
2024/01/12 00:00:22;;;;;;;72.93;48.40;;;-5.30;99.90;;;;;;4875682;29;20438;-79
2024/01/12 00:02:50;;;;;;;74.20;47.77;;;-5.30;99.90;;;;;;4878608;29;20481;-78
2024/01/12 00:05:17;;;;;;;74.30;51.03;;;-5.40;99.90;;;;;;4878204;29;20491;-79
2024/01/12 00:07:44;;;;;;;72.77;48.83;;;-5.30;99.90;;;;;;4878631;29;20454;-79
2024/01/12 00:10:11;;;;;;;70.97;49.90;;;-5.30;99.90;;;;;;4878336;29;20494;-78
2024/01/12 00:12:38;;;;;;;78.27;49.20;;;-5.30;99.90;;;;;;4878561;29;20491;-78
2024/01/12 00:15:06;;;;;;;70.13;48.03;;;-5.30;99.90;;;;;;4878026;29;20458;-78
2024/01/12 00:17:33;;;;;;;70.77;45.87;;;-5.40;99.90;;;;;;4878290;29;20473;-78
2024/01/12 00:20:02;;;;;;;67.50;46.87;;;-5.40;99.90;;;;;;4878386;29;20962;-79
2024/01/12 00:22:31;;;;;;;73.50;49.80;;;-5.50;99.90;;;;;;4885619;29;20442;-79
2024/01/12 00:24:58;;;;;;;70.13;48.87;;;-5.50;99.90;;;;;;4878098;29;20493;-78
2024/01/12 00:27:24;;;;;;;66.10;45.90;;;-5.60;99.90;;;;;;4877787;29;20522;-79
2024/01/12 00:29:51;;;;;;;82.10;50.43;;;-5.60;99.90;;;;;;4879294;29;20489;-79
2024/01/12 00:32:18;;;;;;;75.17;49.73;;;-5.60;99.90;;;;;;4879568;29;20478;-79
2024/01/12 00:34:45;;;;;;;80.53;51.97;;;-5.70;99.90;;;;;;4877787;29;20457;-79
2024/01/12 00:37:13;;;;;;;74.80;49.80;;;-5.70;99.90;;;;;;4878179;29;20508;-79
2024/01/12 00:39:39;;;;;;;73.07;48.90;;;-5.70;99.90;;;;;;4878887;29;20442;-78
2024/01/12 00:42:06;;;;;;;78.50;48.83;;;-5.70;99.90;;;;;;4877840;29;20541;-79
2024/01/12 00:44:33;;;;;;;70.90;47.43;;;-5.70;99.90;;;;;;4877711;29;21031;-79
2024/01/12 00:47:00;;;;;;;81.67;51.67;;;-5.70;99.90;;;;;;4878909;29;20462;-79
2024/01/12 00:49:27;;;;;;;78.90;49.80;;;-5.80;99.90;;;;;;4877742;29;20478;-79
2024/01/12 00:51:53;;;;;;;73.77;47.93;;;-5.80;99.90;;;;;;4878152;29;20517;-79
2024/01/12 00:54:26;;;;;;;71.63;47.83;;;-5.70;99.90;;;;;;4877325;29;20992;-78
2024/01/12 00:56:53;;;;;;;72.30;46.70;;;-5.70;99.90;;;;;;4877346;29;21207;-79
2024/01/12 00:59:22;;;;;;;68.03;46.57;;;-5.70;99.90;;;;;;4877510;29;20454;-79
2024/01/12 01:01:49;;;;;;;74.73;46.70;;;-5.80;99.90;;;;;;4877583;29;20469;-78
2024/01/12 01:04:15;;;;;;;68.07;46.03;;;-5.70;99.90;;;;;;4877295;29;20451;-78
2024/01/12 01:06:43;;;;;;;69.40;46.30;;;-5.70;99.90;;;;;;4877202;29;20903;-78
2024/01/12 01:09:09;;;;;;;68.80;46.03;;;-5.70;99.90;;;;;;4877147;29;20478;-79
2024/01/12 01:11:38;;;;;;;70.47;46.87;;;-5.70;99.90;;;;;;4877095;29;20446;-78
2024/01/12 01:14:04;;;;;;;70.63;47.57;;;-5.70;99.90;;;;;;4871128;29;20456;-78
2024/01/12 01:16:31;;;;;;;70.53;44.93;;;-5.70;99.90;;;;;;4878511;29;20994;-79
2024/01/12 01:18:58;;;;;;;66.43;45.17;;;-5.60;99.90;;;;;;4878485;29;20457;-79
2024/01/12 01:21:25;;;;;;;61.77;43.83;;;-5.60;99.90;;;;;;4877438;29;20485;-78
2024/01/12 01:23:52;;;;;;;64.40;45.13;;;-5.60;99.90;;;;;;4878290;29;20455;-79
2024/01/12 01:26:19;;;;;;;67.10;44.67;;;-5.60;99.90;;;;;;4880825;29;20941;-77
2024/01/12 01:28:47;;;;;;;67.17;45.13;;;-5.60;99.90;;;;;;4878262;29;20481;-79
2024/01/12 01:31:14;;;;;;;70.37;44.83;;;-5.60;99.90;;;;;;4877318;29;20454;-78
2024/01/12 01:33:40;;;;;;;69.60;47.00;;;-5.60;99.90;;;;;;4876553;29;20482;-79
2024/01/12 01:36:07;;;;;;;69.80;44.67;;;-5.60;99.90;;;;;;4878273;29;20462;-79
2024/01/12 01:38:34;;;;;;;72.47;47.90;;;-5.50;99.90;;;;;;4877393;29;21014;-79
2024/01/12 01:41:01;;;;;;;72.47;47.90;;;-5.50;99.90;;;;;;4877949;29;20488;-79
2024/01/12 01:43:28;;;;;;;75.00;47.53;;;-5.50;99.90;;;;;;4878142;29;20450;-78
2024/01/12 01:45:56;;;;;;;74.73;45.83;;;-5.50;99.90;;;;;;4877014;29;20477;-78
2024/01/12 01:48:23;;;;;;;72.13;48.17;;;-5.50;99.90;;;;;;4877058;29;20542;-79
2024/01/12 01:50:50;;;;;;;66.80;45.80;;;-5.60;99.90;;;;;;4876841;29;20457;-79
2024/01/12 01:53:17;;;;;;;71.13;46.83;;;-5.60;99.90;;;;;;4878028;29;20458;-79
2024/01/12 01:55:44;;;;;;;73.93;45.13;;;-5.60;99.90;;;;;;4878065;29;20993;-79
2024/01/12 01:58:12;;;;;;;71.03;45.93;;;-5.60;99.90;;;;;;4877101;29;20450;-79
2024/01/12 02:00:39;;;;;;;67.10;43.40;;;-5.60;99.90;;;;;;4878143;29;20799;-79
2024/01/12 02:03:08;;;;;;;83.07;48.97;;;-5.60;99.90;;;;;;4877979;29;20445;-79
2024/01/12 02:05:36;;;;;;;73.57;45.13;;;-5.60;99.90;;;;;;4876847;29;20526;-79
2024/01/12 02:08:03;;;;;;;69.70;44.17;;;-5.60;99.90;;;;;;4876807;29;20498;-79
2024/01/12 02:10:30;;;;;;;59.47;42.37;;;-5.70;99.90;;;;;;4877540;29;20490;-78
2024/01/12 02:12:56;;;;;;;70.87;46.53;;;-5.70;99.90;;;;;;4875517;29;20862;-79
2024/01/12 02:15:23;;;;;;;72.17;46.70;;;-5.70;99.90;;;;;;4876813;29;20541;-79
2024/01/12 02:17:50;;;;;;;68.37;44.07;;;-5.70;99.90;;;;;;4877719;29;20434;-79
2024/01/12 02:20:18;;;;;;;69.07;44.93;;;-5.80;99.90;;;;;;4878194;29;20456;-79
2024/01/12 02:22:46;;;;;;;65.30;43.90;;;-5.80;99.90;;;;;;4880532;29;20456;-79
2024/01/12 02:25:15;;;;;;;69.00;46.03;;;-5.90;99.90;;;;;;4880253;29;21005;-79
2024/01/12 02:27:42;;;;;;;74.03;46.80;;;-5.90;99.90;;;;;;4874025;29;20456;-78
2024/01/12 02:30:09;;;;;;;69.20;46.27;;;-5.90;99.90;;;;;;4880041;29;20488;-78
2024/01/12 02:32:36;;;;;;;65.13;43.37;;;-5.90;99.90;;;;;;4881341;29;20505;-79
2024/01/12 02:35:03;;;;;;;68.90;43.70;;;-6.00;99.90;;;;;;4888171;29;20495;-78
2024/01/12 02:37:30;;;;;;;69.23;45.30;;;-6.00;99.90;;;;;;4881375;29;20995;-79
2024/01/12 02:39:58;;;;;;;66.63;44.80;;;-6.00;99.90;;;;;;4879612;29;20487;-79
2024/01/12 02:42:25;;;;;;;67.63;46.40;;;-6.00;99.90;;;;;;4879612;29;20451;-78
2024/01/12 02:44:52;;;;;;;65.33;45.13;;;-6.10;99.90;;;;;;4879133;29;20457;-78
2024/01/12 02:47:18;;;;;;;66.87;45.27;;;-6.10;99.90;;;;;;4880918;29;20494;-78
2024/01/12 02:49:45;;;;;;;64.30;44.27;;;-6.10;99.90;;;;;;4879745;29;20487;-79
2024/01/12 02:52:12;;;;;;;67.97;45.80;;;-6.10;99.90;;;;;;4881056;29;20455;-79
2024/01/12 02:54:39;;;;;;;76.20;46.83;;;-6.10;99.90;;;;;;4879539;29;20488;-78
2024/01/12 02:57:07;;;;;;;63.17;43.57;;;-6.10;99.90;;;;;;4880822;29;20461;-79
2024/01/12 02:59:34;;;;;;;59.07;42.80;;;-6.00;99.90;;;;;;4879987;29;20449;-79
2024/01/12 03:02:00;;;;;;;68.60;43.90;;;-6.00;99.90;;;;;;4879458;29;20465;-79
2024/01/12 03:04:27;;;;;;;71.70;44.10;;;-6.00;99.90;;;;;;4879190;29;20458;-79
2024/01/12 03:06:54;;;;;;;57.37;41.30;;;-5.90;99.90;;;;;;4879299;29;20529;-79
2024/01/12 03:09:22;;;;;;;58.27;42.43;;;-6.00;99.90;;;;;;4884812;29;20930;-78
2024/01/12 03:11:49;;;;;;;68.00;42.63;;;-5.90;99.90;;;;;;4883844;29;20527;-78
2024/01/12 03:14:17;;;;;;;62.30;43.03;;;-5.90;99.90;;;;;;4886638;29;20465;-79
2024/01/12 03:16:44;;;;;;;62.33;41.63;;;-5.80;99.90;;;;;;4881221;29;20496;-79
2024/01/12 03:19:11;;;;;;;58.10;40.97;;;-5.80;99.90;;;;;;4878929;29;20462;-79
2024/01/12 03:21:38;;;;;;;57.77;41.33;;;-5.80;99.90;;;;;;4880304;29;20448;-78
2024/01/12 03:24:05;;;;;;;57.93;39.47;;;-5.80;99.90;;;;;;4879171;29;20533;-79
2024/01/12 03:26:36;;;;;;;57.60;39.80;;;-5.80;99.90;;;;;;4879163;29;20546;-79
2024/01/12 03:29:03;;;;;;;59.37;40.53;;;-5.60;99.90;;;;;;4878915;29;20555;-79
2024/01/12 03:31:31;;;;;;;54.33;39.60;;;-5.60;99.90;;;;;;4878214;29;20456;-79
2024/01/12 03:33:58;;;;;;;58.37;39.33;;;-5.50;99.90;;;;;;4878609;29;20487;-79
2024/01/12 03:36:27;;;;;;;53.83;40.03;;;-5.50;99.90;;;;;;4880175;29;21001;-79
2024/01/12 03:38:54;;;;;;;58.00;38.57;;;-5.50;99.90;;;;;;4878861;29;20973;-79
2024/01/12 03:41:21;;;;;;;58.80;41.90;;;-5.60;99.90;;;;;;4879899;29;20436;-78
2024/01/12 03:43:48;;;;;;;59.90;42.43;;;-5.60;99.90;;;;;;4881579;29;20838;-79
2024/01/12 03:46:15;;;;;;;68.57;43.87;;;-5.60;99.90;;;;;;4880174;29;20456;-77
2024/01/12 03:48:44;;;;;;;64.27;42.70;;;-5.60;99.90;;;;;;4880038;29;20458;-78
2024/01/12 03:51:11;;;;;;;67.33;44.30;;;-5.70;99.90;;;;;;4879837;29;20584;-79
2024/01/12 03:53:56;;;;;;;67.77;45.03;;;-5.70;99.90;;;;;;4879070;29;20460;-84
2024/01/12 03:56:23;;;;;;;66.07;44.37;;;-5.70;99.90;;;;;;4879286;29;20478;-82
2024/01/12 03:58:54;;;;;;;69.07;45.50;;;-5.70;99.90;;;;;;4884096;29;20879;-84
2024/01/12 04:01:35;;;;;;;67.13;42.87;;;-5.80;99.90;;;;;;4882675;29;20509;-84
2024/01/12 04:04:05;;;;;;;68.83;44.23;;;-5.80;99.90;;;;;;4888872;29;20518;-85
2024/01/12 04:06:38;;;;;;;66.40;41.93;;;-5.80;99.90;;;;;;4890011;29;20476;-85
2024/01/12 04:09:05;;;;;;;63.17;43.30;;;-5.80;99.90;;;;;;4881903;29;20451;-85
2024/01/12 04:11:33;;;;;;;63.33;42.33;;;-5.80;99.90;;;;;;4891470;29;20483;-84
2024/01/12 04:14:03;;;;;;;66.70;41.70;;;-5.90;99.90;;;;;;4889545;29;20475;-85
2024/01/12 04:16:48;;;;;;;67.83;43.83;;;-5.90;99.90;;;;;;4892845;29;20541;-85
2024/01/12 04:22:57;;;;;;;70.87;43.90;;;-5.90;99.90;;;;;;4885323;29;20457;-84
2024/01/12 04:25:59;;;;;;;70.57;44.20;;;-5.90;99.90;;;;;;4822771;29;20479;-85
2024/01/12 04:55:48;;;;;;;70.13;44.90;;;-6.30;99.90;;;;;;5021949;23;20486;31
2024/01/12 04:58:15;;;;;;;69.20;44.27;;;-6.30;99.90;;;;;;4834602;29;20491;-80
2024/01/12 05:00:42;;;;;;;71.07;46.73;;;-6.30;99.90;;;;;;4835265;29;20525;-78
2024/01/12 05:03:09;;;;;;;70.23;45.53;;;-6.30;99.90;;;;;;4837722;29;20470;-78
2024/01/12 05:05:36;;;;;;;64.37;43.83;;;-6.40;99.90;;;;;;4847412;29;20517;-78
2024/01/12 05:08:03;;;;;;;71.90;46.53;;;-6.30;99.90;;;;;;4823863;29;20440;-78
2024/01/12 05:10:31;;;;;;;71.00;45.87;;;-6.30;99.90;;;;;;4823995;29;20536;-78
2024/01/12 05:12:58;;;;;;;71.43;44.63;;;-6.30;99.90;;;;;;4822668;29;20994;-78
2024/01/12 05:15:25;;;;;;;75.33;45.90;;;-6.30;99.90;;;;;;4815171;29;20470;-77
2024/01/12 05:17:52;;;;;;;65.53;42.53;;;-6.30;99.90;;;;;;4823448;29;20847;-78
2024/01/12 05:20:21;;;;;;;66.97;43.87;;;-6.30;99.90;;;;;;4823677;29;21018;-78
2024/01/12 05:22:48;;;;;;;74.10;45.67;;;-6.30;99.90;;;;;;4824149;29;20969;-79
2024/01/12 05:25:15;;;;;;;66.83;45.37;;;-6.30;99.90;;;;;;4823169;29;20479;-78
2024/01/12 05:27:43;;;;;;;66.40;42.83;;;-6.30;99.90;;;;;;4822269;29;20457;-78
2024/01/12 05:30:11;;;;;;;74.40;47.23;;;-6.30;99.90;;;;;;4822251;29;20520;-78
2024/01/12 05:32:37;;;;;;;70.27;45.10;;;-6.20;99.90;;;;;;4822159;29;20517;-78
2024/01/12 05:35:05;;;;;;;67.33;45.07;;;-6.20;99.90;;;;;;4820070;29;20883;-78
2024/01/12 05:37:32;;;;;;;62.07;42.57;;;-6.30;99.90;;;;;;4824539;29;20469;-78
2024/01/12 05:39:58;;;;;;;63.93;43.83;;;-6.30;99.90;;;;;;4822116;29;20459;-78
2024/01/12 05:42:25;;;;;;;72.43;44.27;;;-6.30;99.90;;;;;;4823613;29;20449;-78
2024/01/12 05:44:54;;;;;;;64.60;43.07;;;-6.30;99.90;;;;;;4828092;29;20472;-78
2024/01/12 05:47:20;;;;;;;70.70;44.73;;;-6.30;99.90;;;;;;4823697;29;20477;-78
2024/01/12 05:49:47;;;;;;;67.93;42.97;;;-6.30;99.90;;;;;;4822369;29;20455;-78
2024/01/12 05:52:14;;;;;;;69.37;46.00;;;-6.30;99.90;;;;;;4822151;29;20477;-78
2024/01/12 05:54:41;;;;;;;73.37;44.40;;;-6.30;99.90;;;;;;4822648;29;21008;-79
2024/01/12 05:57:07;;;;;;;77.73;48.30;;;-6.30;99.90;;;;;;4826940;29;20469;-78
2024/01/12 05:59:34;;;;;;;68.33;43.93;;;-6.40;99.90;;;;;;4827283;29;20520;-78
2024/01/12 06:02:03;;;;;;;69.17;45.03;;;-6.40;99.90;;;;;;4826324;29;20509;-79
2024/01/12 06:04:30;;;;;;;73.80;44.63;;;-6.40;99.90;;;;;;4825430;29;20975;-79
2024/01/12 06:06:57;;;;;;;64.70;45.20;;;-6.40;99.90;;;;;;4825542;29;20485;-79
2024/01/12 06:09:23;;;;;;;75.33;47.10;;;-6.40;99.90;;;;;;4824616;29;20501;-78
2024/01/12 06:11:50;;;;;;;75.00;45.93;;;-6.50;99.90;;;;;;4826624;29;20551;-79
2024/01/12 06:14:17;;;;;;;73.37;46.17;;;-6.50;99.90;;;;;;4828915;29;20873;-81
2024/01/12 06:16:44;;;;;;;69.47;44.57;;;-6.40;99.90;;;;;;4828836;29;20476;-81
2024/01/12 06:19:12;;;;;;;73.50;45.00;;;-6.50;99.90;;;;;;4828463;29;20454;-81
2024/01/12 06:21:39;;;;;;;78.77;46.07;;;-6.50;99.90;;;;;;4828253;29;20518;-78
2024/01/12 06:24:06;;;;;;;67.80;44.23;;;-6.60;99.90;;;;;;4827671;29;21109;-79
2024/01/12 06:26:32;;;;;;;71.73;43.17;;;-6.60;99.90;;;;;;4825891;29;20863;-78
2024/01/12 06:28:59;;;;;;;71.27;46.63;;;-6.60;99.90;;;;;;4825771;29;20461;-78
2024/01/12 06:31:30;;;;;;;76.60;46.60;;;-6.60;99.90;;;;;;4825907;29;20512;-78
2024/01/12 06:33:57;;;;;;;64.80;44.30;;;-6.60;99.90;;;;;;4825228;29;20552;-81
2024/01/12 06:36:25;;;;;;;65.13;45.53;;;-6.60;99.90;;;;;;4826080;29;20466;-78
2024/01/12 06:38:53;;;;;;;70.23;46.77;;;-6.60;99.90;;;;;;4825946;29;20450;-78
2024/01/12 06:41:20;;;;;;;67.63;45.80;;;-6.70;99.90;;;;;;4824984;29;20457;-79
2024/01/12 06:43:47;;;;;;;62.30;41.97;;;-6.70;99.90;;;;;;4825691;29;20472;-78
2024/01/12 06:46:13;;;;;;;70.90;43.87;;;-6.60;99.90;;;;;;4825354;29;20900;-79
2024/01/12 06:48:40;;;;;;;66.47;44.13;;;-6.70;99.90;;;;;;4824633;29;20476;-79
2024/01/12 06:51:07;;;;;;;66.13;46.47;;;-6.70;99.90;;;;;;4823500;29;20486;-83
2024/01/12 06:53:36;;;;;;;61.90;42.90;;;-6.70;99.90;;;;;;4827518;29;20461;-82
2024/01/12 06:56:11;;;;;;;68.33;43.10;;;-6.70;99.90;;;;;;4828784;29;20488;-83
2024/01/12 06:58:47;;;;;;;66.10;42.17;;;-6.70;99.90;;;;;;4827827;29;20457;-83
2024/01/12 07:01:17;;;;;;;70.20;42.70;;;-6.70;99.90;;;;;;4826965;29;20461;-82
2024/01/12 07:03:44;;;;;;;63.40;40.07;;;-6.70;99.90;;;;;;4827414;29;20523;-82
2024/01/12 07:06:18;;;;;;;59.30;41.57;;;-6.70;99.90;;;;;;4834919;29;20520;-81
2024/01/12 07:08:51;;;;;;;63.50;42.40;;;-6.70;99.90;;;;;;4824889;29;20452;-82
2024/01/12 07:11:24;;;;;;;61.30;42.03;;;-6.70;99.90;;;;;;4824836;29;20923;-82
2024/01/12 07:14:14;;;;;;;58.43;41.43;;;-6.70;99.90;;;;;;4825206;29;20526;-82
2024/01/12 07:17:01;;;;;;;72.53;42.77;;;-6.70;99.90;;;;;;4825541;29;20541;-83
2024/01/12 07:19:55;;;;;;;59.17;40.63;;;-6.70;99.90;;;;;;4823534;29;20484;-83
2024/01/12 07:26:25;;;;;;;64.07;41.90;;;-6.60;99.90;;;;;;4745107;30;20481;-83
2024/01/12 07:29:47;;;;;;;60.93;39.97;;;-6.50;99.90;;;;;;4719899;29;20481;-83
2024/01/12 07:36:50;;;;;;;62.43;40.17;;;-6.40;99.90;;;;;;4795136;29;20490;-83
2024/01/12 07:48:47;;;;;;;;;;;;;;;;;;;;;
2024/01/12 07:59:41;;;;;;;75.37;44.10;;;-6.10;99.90;;;;;;4703378;30;20812;-81
2024/01/12 08:09:54;;;;;;;70.17;45.00;;;-5.70;99.90;;;;;;4829145;29;20953;-84
2024/01/12 08:12:40;;;;;;;72.60;44.80;;;-5.60;99.90;;;;;;4830967;29;20495;-82
2024/01/12 08:15:11;;;;;;;62.57;41.57;;;-5.40;99.90;;;;;;4825988;29;20458;-84
2024/01/12 08:17:38;;;;;;;65.47;43.73;;;-5.20;99.90;;;;;;4829343;29;20481;-82
2024/01/12 08:20:06;;;;;;;65.90;44.63;;;-5.00;99.90;;;;;;4824492;29;20972;-82
2024/01/12 08:22:37;;;;;;;63.53;44.40;;;-4.90;99.90;;;;;;4824134;29;20531;-82
2024/01/12 08:25:05;;;;;;;63.37;42.93;;;-4.60;99.90;;;;;;4824651;29;20459;-79
2024/01/12 08:27:31;;;;;;;61.83;43.00;;;-4.30;99.90;;;;;;4822470;29;20476;-80
2024/01/12 08:29:58;;;;;;;62.27;43.00;;;-4.10;99.90;;;;;;4823811;29;20455;-80
2024/01/12 08:32:26;;;;;;;59.70;41.60;;;-3.80;99.90;;;;;;4823873;29;20492;-80
2024/01/12 08:34:53;;;;;;;55.57;40.93;;;-3.60;99.90;;;;;;4822546;29;20457;-80
2024/01/12 08:37:20;;;;;;;59.43;40.53;;;-3.50;99.90;;;;;;4820258;29;20548;-80
2024/01/12 08:39:47;;;;;;;58.57;43.07;;;-3.20;99.90;;;;;;4822485;29;20452;-80
2024/01/12 08:42:14;;;;;;;59.33;41.23;;;-3.00;99.90;;;;;;4830173;29;20445;-81
2024/01/12 08:44:41;;;;;;;55.37;40.03;;;-2.80;99.90;;;;;;4823765;29;20444;-80
2024/01/12 08:47:08;;;;;;;58.10;39.90;;;-2.60;99.90;;;;;;4823929;29;20471;-80
2024/01/12 08:49:36;;;;;;;50.03;37.67;;;-2.50;99.90;;;;;;4823887;29;20997;-81
2024/01/12 08:52:02;;;;;;;50.07;38.37;;;-2.40;99.90;;;;;;4823724;29;20476;-81
2024/01/12 08:54:29;;;;;;;48.13;37.43;;;-2.30;99.90;;;;;;4822293;29;20513;-80
2024/01/12 08:56:56;;;;;;;50.53;37.80;;;-2.20;99.90;;;;;;4822546;29;20477;-80
2024/01/12 08:59:23;;;;;;;51.67;38.57;;;-2.10;99.90;;;;;;4819559;29;20510;-80
2024/01/12 09:01:50;;;;;;;59.03;40.37;;;-2.10;99.90;;;;;;4823820;29;20780;-80
2024/01/12 09:04:16;;;;;;;48.80;36.90;;;-2.20;99.90;;;;;;4820090;29;20453;-81
2024/01/12 09:06:44;;;;;;;50.87;38.70;;;-2.20;99.90;;;;;;4822122;29;20509;-80
2024/01/12 09:09:12;;;;;;;50.00;38.33;;;-2.20;99.90;;;;;;4825806;29;20445;-80
2024/01/12 09:11:39;;;;;;;52.67;39.23;;;-2.30;99.90;;;;;;4822535;29;20568;-80
2024/01/12 09:14:06;;;;;;;51.83;39.97;;;-2.20;99.90;;;;;;4823322;29;20456;-81
2024/01/12 09:16:36;;;;;;;51.87;38.63;;;-2.10;99.90;;;;;;4825864;29;20464;-80
2024/01/12 09:19:03;;;;;;;57.20;40.00;;;-2.20;99.90;;;;;;4828033;29;20451;-84
2024/01/12 09:21:30;;;;;;;55.40;39.67;;;-2.20;99.90;;;;;;4822483;29;20457;-80
2024/01/12 09:23:58;;;;;;;54.97;40.57;;;-2.10;99.90;;;;;;4822273;29;20497;-80
2024/01/12 09:26:26;;;;;;;50.00;38.77;;;-2.20;99.90;;;;;;4821981;29;20474;-80
2024/01/12 09:28:52;;;;;;;49.47;38.63;;;-2.20;99.90;;;;;;4822100;29;20517;-80
2024/01/12 09:31:19;;;;;;;58.27;39.17;;;-2.20;99.90;;;;;;4819590;29;20469;-80
2024/01/12 09:33:46;;;;;;;55.53;39.77;;;-2.20;99.90;;;;;;4821350;29;20605;-81
2024/01/12 09:36:13;;;;;;;50.73;39.13;;;-2.40;99.90;;;;;;4823480;29;20912;-80
2024/01/12 09:38:39;;;;;;;56.40;41.53;;;-2.40;99.90;;;;;;4823467;29;20493;-80
2024/01/12 09:45:03;;;;;;;54.90;40.13;;;-2.50;99.90;;;;;;4818531;29;20427;-80
2024/01/12 09:48:20;;;;;;;51.73;38.73;;;-2.50;99.90;;;;;;4827472;29;20865;-83
2024/01/12 10:06:10;;;;;;;48.63;34.50;;;-2.40;99.90;;;;;;4960450;23;20512;-81
2024/01/12 10:08:37;;;;;;;50.27;37.70;;;-2.30;99.90;;;;;;4892114;29;20460;-77
2024/01/12 10:11:04;;;;;;;49.00;35.57;;;-2.20;99.90;;;;;;4895633;29;20460;-80
2024/01/12 10:13:31;;;;;;;47.37;35.23;;;-2.20;99.90;;;;;;4895894;29;20514;-80
2024/01/12 10:15:58;;;;;;;47.13;34.30;;;-2.10;99.90;;;;;;4897303;29;20883;-81
2024/01/12 10:18:24;;;;;;;42.43;33.77;;;-2.00;99.90;;;;;;4896210;29;20451;-78
2024/01/12 10:20:51;;;;;;;45.73;36.07;;;-1.90;99.90;;;;;;4896397;29;20535;-79
2024/01/12 10:23:21;;;;;;;44.97;35.40;;;-1.90;99.90;;;;;;4895724;29;21015;-80
2024/01/12 10:25:56;;;;;;;49.60;35.80;;;-1.90;99.90;;;;;;4896440;29;20468;-80
2024/01/12 10:28:23;;;;;;;49.13;35.80;;;-1.80;99.90;;;;;;4892666;29;20458;-79
2024/01/12 10:30:50;;;;;;;44.07;35.27;;;-1.80;99.90;;;;;;4896348;29;20880;-79
2024/01/12 10:33:18;;;;;;;50.77;35.00;;;-1.70;99.90;;;;;;4895880;29;20529;-79
2024/01/12 10:35:49;;;;;;;45.07;35.50;;;-1.50;99.90;;;;;;4895099;29;20848;-81
2024/01/12 10:38:17;;;;;;;46.53;35.47;;;-1.50;99.90;;;;;;4898813;29;20456;-81
2024/01/12 10:40:46;;;;;;;40.07;33.93;;;-1.50;99.90;;;;;;4896941;29;20454;-80
2024/01/12 10:43:17;;;;;;;41.67;35.27;;;-1.50;99.90;;;;;;4898249;29;20505;-79
2024/01/12 10:45:45;;;;;;;40.63;33.00;;;-1.40;99.90;;;;;;4899763;29;20461;-80
2024/01/12 10:48:16;;;;;;;42.67;34.67;;;-1.40;99.90;;;;;;4898155;29;20453;-82
2024/01/12 10:50:44;;;;;;;52.17;37.27;;;-1.40;99.90;;;;;;4898450;29;20508;-81
2024/01/12 10:53:18;;;;;;;44.23;34.47;;;-1.40;99.90;;;;;;4898187;29;20575;-80
2024/01/12 10:55:53;;;;;;;46.93;37.00;;;-1.30;99.90;;;;;;4898601;29;20933;-82
2024/01/12 10:58:21;;;;;;;50.63;38.13;;;-1.30;99.90;;;;;;4898399;29;20452;-82
2024/01/12 11:00:48;;;;;;;48.03;36.50;;;-1.30;99.90;;;;;;4898583;29;21043;-82
2024/01/12 11:03:16;;;;;;;49.97;36.63;;;-1.30;99.90;;;;;;4897691;29;20513;-81
2024/01/12 11:05:44;;;;;;;48.93;36.30;;;-1.30;99.90;;;;;;4898310;29;21212;-82
2024/01/12 11:08:12;;;;;;;48.40;36.53;;;-1.20;99.90;;;;;;4899474;29;20442;-82
2024/01/12 11:10:42;;;;;;;49.53;36.90;;;-1.20;99.90;;;;;;4899396;29;20449;-82
2024/01/12 11:13:13;;;;;;;51.47;37.73;;;-1.20;99.90;;;;;;4898097;29;20477;-81
2024/01/12 11:15:40;;;;;;;51.80;40.23;;;-1.20;99.90;;;;;;4901054;29;20490;-82
2024/01/12 11:18:07;;;;;;;53.43;40.90;;;-1.20;99.90;;;;;;4899444;29;20514;-82
2024/01/12 11:20:34;;;;;;;50.30;39.47;;;-1.20;99.90;;;;;;4897793;29;20453;-80
2024/01/12 11:23:01;;;;;;;51.23;39.37;;;-1.10;99.90;;;;;;4899461;29;20466;-82
2024/01/12 11:25:28;;;;;;;50.70;39.80;;;-1.10;99.90;;;;;;4906322;29;21003;-82
2024/01/12 11:27:57;;;;;;;62.83;42.63;;;-1.10;99.90;;;;;;4897625;29;21216;-82
2024/01/12 11:30:26;;;;;;;51.53;39.97;;;-1.10;99.90;;;;;;4899282;29;20441;-82
2024/01/12 11:33:01;;;;;;;56.77;42.30;;;-1.10;99.90;;;;;;4901081;29;20517;-81
2024/01/12 11:35:30;;;;;;;53.07;39.53;;;-1.10;99.90;;;;;;4894304;29;20453;-82
2024/01/12 11:42:08;;;;;;;51.37;38.33;;;-1.00;99.90;;;;;;4869282;29;20495;-83
2024/01/12 11:45:22;;;;;;;52.80;38.90;;;-1.00;99.90;;;;;;4860436;29;20454;-84
2024/01/12 11:47:54;;;;;;;52.13;37.90;;;-1.00;99.90;;;;;;4877546;29;20433;-81
2024/01/12 11:50:25;;;;;;;49.57;36.53;;;-0.90;99.90;;;;;;4878783;29;20507;-81
2024/01/12 12:07:56;;;;;;;55.73;40.13;;;-0.80;99.90;;;;;;4736717;29;20850;-81
2024/01/12 12:10:24;;;;;;;51.63;38.17;;;-0.70;99.90;;;;;;4881034;29;20454;-82
2024/01/12 12:12:50;;;;;;;53.57;39.83;;;-0.80;99.90;;;;;;4897377;29;20474;-82
2024/01/12 12:15:17;;;;;;;54.17;40.63;;;-0.80;99.90;;;;;;4899043;29;20457;-81
2024/01/12 12:17:46;;;;;;;50.47;38.63;;;-0.80;99.90;;;;;;4897100;29;20465;-81
2024/01/12 12:20:14;;;;;;;48.30;37.93;;;-0.80;99.90;;;;;;4898493;29;20450;-82
2024/01/12 12:22:41;;;;;;;48.53;37.53;;;-0.70;99.90;;;;;;4897300;29;20456;-82
2024/01/12 12:25:10;;;;;;;48.30;38.30;;;-0.70;99.90;;;;;;4898126;29;20817;-81
2024/01/12 12:27:37;;;;;;;52.60;39.87;;;-0.70;99.90;;;;;;4898648;29;20469;-82
2024/01/12 12:30:07;;;;;;;47.50;37.37;;;-0.70;99.90;;;;;;4905752;29;20477;-82
2024/01/12 12:32:34;;;;;;;46.37;36.53;;;-0.60;99.90;;;;;;4896623;29;21024;-82
2024/01/12 12:35:11;;;;;;;47.27;38.10;;;-0.60;99.90;;;;;;4899184;29;20912;-82
2024/01/12 12:37:38;;;;;;;43.90;35.47;;;-0.60;99.90;;;;;;4898388;29;20478;-82
2024/01/12 12:40:08;;;;;;;52.90;39.90;;;-0.50;99.90;;;;;;4897304;29;20466;-81
2024/01/12 12:42:36;;;;;;;51.20;38.53;;;-0.50;99.90;;;;;;4897789;29;20956;-82
2024/01/12 12:45:05;;;;;;;47.67;36.73;;;-0.50;99.90;;;;;;4897912;29;20866;-82
2024/01/12 12:47:32;;;;;;;49.43;38.00;;;-0.50;99.90;;;;;;4901395;29;20553;-82
2024/01/12 12:50:09;;;;;;;46.43;37.23;;;-0.40;99.90;;;;;;4893589;29;20863;-82
2024/01/12 12:52:37;;;;;;;46.87;36.93;;;-0.40;99.90;;;;;;4898826;29;20471;-81
2024/01/12 12:55:04;;;;;;;48.30;38.97;;;-0.40;99.90;;;;;;4900432;29;20455;-80
2024/01/12 12:57:34;;;;;;;46.97;37.20;;;-0.40;99.90;;;;;;4899176;29;20469;-85
2024/01/12 13:00:12;;;;;;;45.60;36.13;;;-0.40;99.90;;;;;;4907395;29;20513;-85
2024/01/12 13:02:47;;;;;;;55.67;37.43;;;-0.30;99.90;;;;;;4908492;29;20534;-81
2024/01/12 13:05:17;;;;;;;47.87;37.47;;;-0.30;99.90;;;;;;4895116;29;20462;-84
2024/01/12 13:07:44;;;;;;;49.87;37.37;;;-0.30;99.90;;;;;;4897061;29;20461;-84
2024/01/12 13:10:11;;;;;;;42.57;34.90;;;-0.20;99.90;;;;;;4892923;29;20473;-84
2024/01/12 13:12:39;;;;;;;47.47;36.17;;;-0.20;99.90;;;;;;4903804;29;20505;-84
2024/01/12 13:15:10;;;;;;;46.97;36.37;;;-0.20;99.90;;;;;;4900657;29;20454;-84
2024/01/12 13:17:37;;;;;;;48.10;37.87;;;-0.10;99.90;;;;;;4896892;29;20501;-85
2024/01/12 13:20:04;;;;;;;46.47;37.93;;;-0.10;99.90;;;;;;4904749;29;20970;-82
2024/01/12 13:22:31;;;;;;;49.47;38.93;;;0.00;99.90;;;;;;4903229;29;20470;-83
2024/01/12 13:24:59;;;;;;;48.93;36.67;;;0.00;99.90;;;;;;4911900;29;20509;-83
2024/01/12 13:27:26;;;;;;;44.50;36.10;;;0.00;99.90;;;;;;4896727;29;21018;-83
2024/01/12 13:29:54;;;;;;;52.57;39.03;;;0.00;99.90;;;;;;4903907;29;20837;-82
2024/01/12 13:32:23;;;;;;;56.03;42.43;;;0.00;99.90;;;;;;4907803;29;20530;-83
2024/01/12 13:34:50;;;;;;;55.10;40.73;;;0.00;99.90;;;;;;4897525;29;20499;-83
2024/01/12 13:37:17;;;;;;;47.00;36.70;;;-0.10;99.90;;;;;;4900290;29;20529;-83
2024/01/12 13:39:44;;;;;;;51.03;40.70;;;0.00;99.90;;;;;;4900243;29;21000;-83
2024/01/12 13:42:11;;;;;;;48.17;38.97;;;0.00;99.90;;;;;;4904298;29;20448;-84
2024/01/12 13:44:52;;;;;;;54.20;41.80;;;0.00;99.90;;;;;;4896442;29;20535;-83
2024/01/12 13:47:36;;;;;;;48.43;38.47;;;0.00;99.90;;;;;;4895019;29;20531;-83
2024/01/12 13:50:04;;;;;;;50.97;41.00;;;0.10;99.90;;;;;;4895564;29;20449;-83
2024/01/12 13:52:32;;;;;;;48.53;38.37;;;0.00;99.90;;;;;;4895892;29;20483;-84
2024/01/12 13:55:01;;;;;;;46.83;38.60;;;0.00;99.90;;;;;;4893998;29;20490;-80
2024/01/12 13:57:28;;;;;;;46.10;39.33;;;0.00;99.90;;;;;;4896672;29;20546;-80
2024/01/12 13:59:54;;;;;;;54.70;41.27;;;0.00;99.90;;;;;;4895192;29;20539;-80
2024/01/12 14:02:23;;;;;;;51.33;40.90;;;0.10;99.90;;;;;;4895783;29;20463;-78
2024/01/12 14:04:50;;;;;;;53.07;38.97;;;0.10;99.90;;;;;;4894849;29;20450;-79
2024/01/12 14:07:17;;;;;;;50.93;40.93;;;0.00;99.90;;;;;;4895809;29;20525;-80
2024/01/12 14:09:44;;;;;;;46.83;38.30;;;0.10;99.90;;;;;;4898615;29;20462;-80
2024/01/12 14:12:11;;;;;;;47.40;38.77;;;0.10;99.90;;;;;;4896542;29;20455;-80
2024/01/12 14:14:37;;;;;;;47.00;35.97;;;0.10;99.90;;;;;;4895511;29;20516;-80
2024/01/12 14:17:04;;;;;;;44.23;36.33;;;0.10;99.90;;;;;;4897647;29;20487;-81
2024/01/12 14:19:32;;;;;;;45.50;36.87;;;0.10;99.90;;;;;;4900116;29;20447;-81